EJA24 KORF-MDJB
Flight info
| Callsign | EJA24 |
|---|---|
| Flight time | 2h 31m |
| Altitude | 30000 |
| Route | OHPEA AR8 OXANA/M071F300 L452 LNHOM/N0430F300 L452 HAGIT L450 SEKAR UL339 PTA UT20 KODIX |
| Aircraft | B737/M-SDE2E3FGHIRWXY/LB1 |
Departure
| Time | 2026-05-08 20:33 |
|---|---|
| Airport | Norfolk International Airport (KORF) |
Arrival
| Time | 2026-05-08 23:05 |
|---|---|
| Airport | La Isabela International Airport (MDJB) |
| Time | Latitude | Longitude | Altitude | Speed | Heading |
|---|---|---|---|---|---|
| 2026-05-08 20:13 | 36.88750 | -76.20079 | 3 ft | 0 kts | 47° |
| 2026-05-08 20:25 | 36.88750 | -76.20080 | 2 ft | 1 kts | 47° |
| 2026-05-08 20:25 | 36.88739 | -76.20094 | 2 ft | 3 kts | 41° |
| 2026-05-08 20:25 | 36.88725 | -76.20108 | 3 ft | 3 kts | 28° |
| 2026-05-08 20:25 | 36.88708 | -76.20117 | 3 ft | 3 kts | 8° |
| 2026-05-08 20:26 | 36.88690 | -76.20116 | 2 ft | 3 kts | 334° |
| 2026-05-08 20:26 | 36.88679 | -76.20107 | 3 ft | 1 kts | 311° |
| 2026-05-08 20:26 | 36.88676 | -76.20104 | 3 ft | 0 kts | 311° |
| 2026-05-08 20:28 | 36.88683 | -76.20113 | 3 ft | 4 kts | 311° |
| 2026-05-08 20:28 | 36.88706 | -76.20155 | 2 ft | 1 kts | 300° |
| 2026-05-08 20:29 | 36.88716 | -76.20158 | 2 ft | 3 kts | 351° |
| 2026-05-08 20:29 | 36.88745 | -76.20146 | 2 ft | 6 kts | 27° |
| 2026-05-08 20:29 | 36.88787 | -76.20106 | 2 ft | 9 kts | 30° |
| 2026-05-08 20:29 | 36.88820 | -76.20164 | 2 ft | 11 kts | 280° |
| 2026-05-08 20:30 | 36.88849 | -76.20267 | 2 ft | 13 kts | 291° |
| 2026-05-08 20:30 | 36.88877 | -76.20373 | 3 ft | 13 kts | 287° |
| 2026-05-08 20:30 | 36.88913 | -76.20472 | 5 ft | 12 kts | 300° |
| 2026-05-08 20:30 | 36.88959 | -76.20562 | 6 ft | 12 kts | 307° |
| 2026-05-08 20:31 | 36.88949 | -76.20653 | 4 ft | 12 kts | 221° |
| 2026-05-08 20:31 | 36.88885 | -76.20714 | 2 ft | 12 kts | 217° |
| 2026-05-08 20:31 | 36.88821 | -76.20774 | 2 ft | 11 kts | 218° |
| 2026-05-08 20:31 | 36.88761 | -76.20833 | 3 ft | 11 kts | 218° |
| 2026-05-08 20:32 | 36.88701 | -76.20889 | 2 ft | 11 kts | 209° |
| 2026-05-08 20:32 | 36.88643 | -76.20888 | 1 ft | 7 kts | 149° |
| 2026-05-08 20:32 | 36.88619 | -76.20835 | 1 ft | 7 kts | 98° |
| 2026-05-08 20:32 | 36.88639 | -76.20781 | 2 ft | 8 kts | 40° |
| 2026-05-08 20:33 | 36.88797 | -76.20627 | 3 ft | 72 kts | 38° |
| 2026-05-08 20:33 | 36.89453 | -76.19992 | 94 ft | 156 kts | 41° |
| 2026-05-08 20:33 | 36.90473 | -76.19027 | 579 ft | 210 kts | 39° |
| 2026-05-08 20:33 | 36.91707 | -76.17836 | 1419 ft | 236 kts | 47° |
| 2026-05-08 20:34 | 36.92457 | -76.16069 | 2408 ft | 230 kts | 82° |
| 2026-05-08 20:34 | 36.92266 | -76.14104 | 3163 ft | 234 kts | 115° |
| 2026-05-08 20:34 | 36.89803 | -76.11643 | 4407 ft | 242 kts | 178° |
| 2026-05-08 20:35 | 36.88131 | -76.11838 | 4994 ft | 245 kts | 196° |
| 2026-05-08 20:35 | 36.86459 | -76.12338 | 5635 ft | 251 kts | 198° |
| 2026-05-08 20:35 | 36.84722 | -76.12923 | 6138 ft | 265 kts | 199° |
| 2026-05-08 20:35 | 36.82903 | -76.13413 | 6770 ft | 275 kts | 189° |
| 2026-05-08 20:36 | 36.80951 | -76.13390 | 7183 ft | 285 kts | 175° |
| 2026-05-08 20:36 | 36.79017 | -76.12752 | 7566 ft | 291 kts | 163° |
| 2026-05-08 20:36 | 36.77146 | -76.11827 | 8073 ft | 289 kts | 161° |
| 2026-05-08 20:36 | 36.75256 | -76.10854 | 8592 ft | 297 kts | 161° |
| 2026-05-08 20:37 | 36.73331 | -76.09844 | 9137 ft | 303 kts | 161° |
| 2026-05-08 20:37 | 36.71383 | -76.08818 | 9656 ft | 306 kts | 161° |
| 2026-05-08 20:37 | 36.69411 | -76.07782 | 10163 ft | 309 kts | 161° |
| 2026-05-08 20:37 | 36.67427 | -76.06746 | 10650 ft | 314 kts | 161° |
| 2026-05-08 20:38 | 36.65355 | -76.05672 | 11170 ft | 331 kts | 162° |
| 2026-05-08 20:38 | 36.63172 | -76.04546 | 11677 ft | 347 kts | 162° |
| 2026-05-08 20:38 | 36.60891 | -76.03373 | 12206 ft | 362 kts | 162° |
| 2026-05-08 20:38 | 36.58518 | -76.02153 | 12736 ft | 377 kts | 162° |
| 2026-05-08 20:39 | 36.56047 | -76.00883 | 13281 ft | 390 kts | 163° |
| 2026-05-08 20:39 | 36.53497 | -75.99573 | 13820 ft | 403 kts | 163° |
| 2026-05-08 20:39 | 36.50863 | -75.98220 | 14304 ft | 415 kts | 163° |
| 2026-05-08 20:39 | 36.48162 | -75.96833 | 14788 ft | 426 kts | 163° |
| 2026-05-08 20:40 | 36.45395 | -75.95413 | 15280 ft | 435 kts | 163° |
| 2026-05-08 20:40 | 36.42578 | -75.93967 | 15770 ft | 441 kts | 163° |
| 2026-05-08 20:40 | 36.39733 | -75.92506 | 16274 ft | 443 kts | 163° |
| 2026-05-08 20:40 | 36.36886 | -75.91045 | 16747 ft | 444 kts | 163° |
| 2026-05-08 20:41 | 36.34024 | -75.89579 | 17255 ft | 445 kts | 163° |
| 2026-05-08 20:41 | 36.31160 | -75.88115 | 17775 ft | 446 kts | 164° |
| 2026-05-08 20:41 | 36.28282 | -75.86646 | 18310 ft | 451 kts | 164° |
| 2026-05-08 20:41 | 36.25355 | -75.85157 | 18774 ft | 457 kts | 164° |
| 2026-05-08 20:42 | 36.22401 | -75.83655 | 19251 ft | 462 kts | 164° |
| 2026-05-08 20:42 | 36.19416 | -75.82137 | 19727 ft | 466 kts | 165° |
| 2026-05-08 20:42 | 36.16397 | -75.80601 | 20213 ft | 470 kts | 165° |
| 2026-05-08 20:42 | 36.13362 | -75.79058 | 20681 ft | 474 kts | 165° |
| 2026-05-08 20:43 | 36.10301 | -75.77502 | 21181 ft | 476 kts | 165° |
| 2026-05-08 20:43 | 36.07226 | -75.75941 | 21686 ft | 479 kts | 165° |
| 2026-05-08 20:43 | 36.04137 | -75.74374 | 22194 ft | 481 kts | 165° |
| 2026-05-08 20:43 | 36.01078 | -75.72824 | 22716 ft | 483 kts | 166° |
| 2026-05-08 20:44 | 35.97918 | -75.71224 | 23253 ft | 485 kts | 166° |
| 2026-05-08 20:44 | 35.94792 | -75.69641 | 23787 ft | 486 kts | 166° |
| 2026-05-08 20:44 | 35.91696 | -75.68077 | 24217 ft | 488 kts | 166° |
| 2026-05-08 20:44 | 35.88564 | -75.66429 | 24667 ft | 495 kts | 162° |
| 2026-05-08 20:45 | 35.85559 | -75.64242 | 25086 ft | 508 kts | 153° |
| 2026-05-08 20:45 | 35.83653 | -75.62445 | 25403 ft | 516 kts | 147° |
| 2026-05-08 20:45 | 35.80247 | -75.58263 | 26042 ft | 525 kts | 140° |
| 2026-05-08 20:45 | 35.77760 | -75.54960 | 26518 ft | 527 kts | 140° |
| 2026-05-08 20:46 | 35.75279 | -75.51634 | 27007 ft | 529 kts | 140° |
| 2026-05-08 20:46 | 35.72782 | -75.48311 | 27497 ft | 530 kts | 141° |
| 2026-05-08 20:46 | 35.70251 | -75.44986 | 27906 ft | 534 kts | 141° |
| 2026-05-08 20:46 | 35.67681 | -75.41652 | 28144 ft | 541 kts | 142° |
| 2026-05-08 20:47 | 35.65066 | -75.38286 | 28413 ft | 547 kts | 142° |
| 2026-05-08 20:47 | 35.62424 | -75.34895 | 28678 ft | 552 kts | 142° |
| 2026-05-08 20:47 | 35.59757 | -75.31471 | 28953 ft | 557 kts | 142° |
| 2026-05-08 20:47 | 35.57061 | -75.28012 | 29190 ft | 562 kts | 142° |
| 2026-05-08 20:48 | 35.54350 | -75.24531 | 29461 ft | 566 kts | 142° |
| 2026-05-08 20:48 | 35.51614 | -75.21019 | 29731 ft | 570 kts | 142° |
| 2026-05-08 20:48 | 35.48866 | -75.17493 | 30002 ft | 574 kts | 142° |
| 2026-05-08 20:49 | 35.43311 | -75.10379 | 30063 ft | 578 kts | 142° |
| 2026-05-08 20:49 | 35.37769 | -75.03293 | 30060 ft | 574 kts | 142° |
| 2026-05-08 20:50 | 35.32253 | -74.96247 | 30066 ft | 572 kts | 142° |
| 2026-05-08 20:50 | 35.26753 | -74.89232 | 30028 ft | 570 kts | 142° |
| 2026-05-08 20:51 | 35.21273 | -74.82257 | 30063 ft | 569 kts | 142° |
| 2026-05-08 20:51 | 35.15778 | -74.75280 | 30064 ft | 570 kts | 142° |
| 2026-05-08 20:52 | 35.10269 | -74.68299 | 30063 ft | 571 kts | 142° |
| 2026-05-08 20:52 | 35.04747 | -74.61314 | 30064 ft | 572 kts | 142° |
| 2026-05-08 20:53 | 34.99210 | -74.54325 | 30055 ft | 573 kts | 142° |
| 2026-05-08 20:53 | 34.93659 | -74.47332 | 30060 ft | 574 kts | 142° |
| 2026-05-08 20:54 | 34.88100 | -74.40343 | 30060 ft | 575 kts | 142° |
| 2026-05-08 20:54 | 34.82535 | -74.33361 | 30067 ft | 574 kts | 142° |
| 2026-05-08 20:55 | 34.76971 | -74.26394 | 30060 ft | 574 kts | 142° |
| 2026-05-08 20:55 | 34.71440 | -74.19484 | 30060 ft | 574 kts | 142° |
| 2026-05-08 20:56 | 34.65886 | -74.12556 | 30055 ft | 570 kts | 142° |
| 2026-05-08 20:56 | 34.60350 | -74.05668 | 30055 ft | 569 kts | 142° |
| 2026-05-08 20:57 | 34.54822 | -73.98804 | 30049 ft | 568 kts | 142° |
| 2026-05-08 20:57 | 34.50193 | -73.93067 | 30056 ft | 567 kts | 142° |
| 2026-05-08 20:58 | 34.44710 | -73.86281 | 30055 ft | 567 kts | 142° |
| 2026-05-08 20:58 | 34.39071 | -73.79673 | 30035 ft | 555 kts | 152° |
| 2026-05-08 20:58 | 34.35889 | -73.77041 | 30059 ft | 541 kts | 161° |
| 2026-05-08 20:59 | 34.32638 | -73.74994 | 30059 ft | 529 kts | 168° |
| 2026-05-08 20:59 | 34.29247 | -73.73429 | 30048 ft | 513 kts | 177° |
| 2026-05-08 20:59 | 34.25822 | -73.72343 | 30062 ft | 508 kts | 179° |
| 2026-05-08 21:00 | 34.18955 | -73.70219 | 30042 ft | 510 kts | 178° |
| 2026-05-08 21:00 | 34.12095 | -73.68024 | 30012 ft | 510 kts | 176° |
| 2026-05-08 21:01 | 34.05264 | -73.65795 | 30040 ft | 508 kts | 176° |
| 2026-05-08 21:01 | 33.98462 | -73.63580 | 30045 ft | 506 kts | 176° |
| 2026-05-08 21:02 | 33.91658 | -73.61373 | 30041 ft | 505 kts | 176° |
| 2026-05-08 21:02 | 33.84868 | -73.59175 | 30035 ft | 504 kts | 176° |
| 2026-05-08 21:03 | 33.78097 | -73.56988 | 30038 ft | 504 kts | 176° |
| 2026-05-08 21:03 | 33.71320 | -73.54804 | 30046 ft | 504 kts | 176° |
| 2026-05-08 21:04 | 33.64537 | -73.52621 | 30045 ft | 504 kts | 176° |
| 2026-05-08 21:04 | 33.57754 | -73.50440 | 30033 ft | 505 kts | 176° |
| 2026-05-08 21:05 | 33.50958 | -73.48260 | 30045 ft | 507 kts | 176° |
| 2026-05-08 21:05 | 33.44127 | -73.46071 | 30048 ft | 509 kts | 176° |
| 2026-05-08 21:06 | 33.37275 | -73.43878 | 30041 ft | 511 kts | 175° |
| 2026-05-08 21:06 | 33.30396 | -73.41678 | 30036 ft | 512 kts | 175° |
| 2026-05-08 21:07 | 33.23501 | -73.39479 | 30034 ft | 513 kts | 175° |
| 2026-05-08 21:07 | 33.16590 | -73.37276 | 30037 ft | 514 kts | 175° |
| 2026-05-08 21:08 | 33.09678 | -73.35072 | 30035 ft | 514 kts | 175° |
| 2026-05-08 21:08 | 33.02763 | -73.32870 | 30030 ft | 514 kts | 175° |
| 2026-05-08 21:09 | 32.95851 | -73.30675 | 30030 ft | 514 kts | 175° |
| 2026-05-08 21:09 | 32.88940 | -73.28483 | 30037 ft | 514 kts | 175° |
| 2026-05-08 21:10 | 32.82034 | -73.26295 | 30028 ft | 513 kts | 175° |
| 2026-05-08 21:10 | 32.75144 | -73.24115 | 30021 ft | 512 kts | 175° |
| 2026-05-08 21:11 | 32.68264 | -73.21943 | 30021 ft | 511 kts | 175° |
| 2026-05-08 21:11 | 32.61440 | -73.19793 | 30023 ft | 511 kts | 175° |
| 2026-05-08 21:12 | 32.54571 | -73.17632 | 30027 ft | 510 kts | 175° |
| 2026-05-08 21:12 | 32.47713 | -73.15476 | 30023 ft | 510 kts | 175° |
| 2026-05-08 21:13 | 32.40864 | -73.13328 | 30025 ft | 510 kts | 175° |
| 2026-05-08 21:13 | 32.34001 | -73.11178 | 30024 ft | 510 kts | 175° |
| 2026-05-08 21:14 | 32.27136 | -73.09033 | 30025 ft | 510 kts | 175° |
| 2026-05-08 21:14 | 32.20272 | -73.06897 | 30025 ft | 510 kts | 175° |
| 2026-05-08 21:15 | 32.13401 | -73.04763 | 30023 ft | 510 kts | 175° |
| 2026-05-08 21:15 | 32.06540 | -73.02633 | 30007 ft | 510 kts | 175° |
| 2026-05-08 21:16 | 31.99678 | -73.00506 | 29956 ft | 510 kts | 175° |
| 2026-05-08 21:16 | 31.92833 | -72.98387 | 30009 ft | 508 kts | 174° |
| 2026-05-08 21:17 | 31.85985 | -72.96270 | 30013 ft | 508 kts | 174° |
| 2026-05-08 21:17 | 31.79147 | -72.94161 | 30008 ft | 508 kts | 174° |
| 2026-05-08 21:18 | 31.72304 | -72.92053 | 30011 ft | 508 kts | 174° |
| 2026-05-08 21:18 | 31.65470 | -72.89950 | 30010 ft | 508 kts | 174° |
| 2026-05-08 21:19 | 31.58638 | -72.87852 | 30015 ft | 508 kts | 174° |
| 2026-05-08 21:19 | 31.51796 | -72.85754 | 30013 ft | 508 kts | 174° |
| 2026-05-08 21:20 | 31.44965 | -72.83662 | 30015 ft | 508 kts | 174° |
| 2026-05-08 21:20 | 31.38141 | -72.81575 | 30010 ft | 506 kts | 174° |
| 2026-05-08 21:21 | 31.31369 | -72.79508 | 30014 ft | 506 kts | 174° |
| 2026-05-08 21:21 | 31.24560 | -72.77432 | 30012 ft | 506 kts | 174° |
| 2026-05-08 21:22 | 31.17753 | -72.75361 | 30014 ft | 505 kts | 174° |
| 2026-05-08 21:22 | 31.10955 | -72.73294 | 30009 ft | 504 kts | 173° |
| 2026-05-08 21:23 | 31.04165 | -72.71233 | 30016 ft | 504 kts | 173° |
| 2026-05-08 21:23 | 30.97383 | -72.69178 | 30012 ft | 504 kts | 173° |
| 2026-05-08 21:24 | 30.90603 | -72.67127 | 30014 ft | 503 kts | 173° |
| 2026-05-08 21:24 | 30.83822 | -72.65078 | 30023 ft | 503 kts | 173° |
| 2026-05-08 21:25 | 30.77043 | -72.63032 | 30020 ft | 503 kts | 173° |
| 2026-05-08 21:25 | 30.70263 | -72.60990 | 30013 ft | 503 kts | 173° |
| 2026-05-08 21:26 | 30.63476 | -72.58948 | 30009 ft | 504 kts | 173° |
| 2026-05-08 21:26 | 30.56692 | -72.56909 | 30007 ft | 504 kts | 173° |
| 2026-05-08 21:27 | 30.49898 | -72.54880 | 30013 ft | 504 kts | 173° |
| 2026-05-08 21:27 | 30.43100 | -72.52863 | 30013 ft | 505 kts | 173° |
| 2026-05-08 21:28 | 30.36294 | -72.50843 | 30016 ft | 505 kts | 173° |
| 2026-05-08 21:28 | 30.29487 | -72.48823 | 30001 ft | 505 kts | 172° |
| 2026-05-08 21:29 | 30.22683 | -72.46807 | 30012 ft | 505 kts | 172° |
| 2026-05-08 21:29 | 30.15869 | -72.44792 | 30014 ft | 506 kts | 172° |
| 2026-05-08 21:30 | 30.09050 | -72.42789 | 30019 ft | 506 kts | 172° |
| 2026-05-08 21:30 | 30.02236 | -72.40798 | 30002 ft | 505 kts | 172° |
| 2026-05-08 21:31 | 29.95421 | -72.38808 | 30016 ft | 505 kts | 172° |
| 2026-05-08 21:31 | 29.88607 | -72.36819 | 30023 ft | 505 kts | 172° |
| 2026-05-08 21:32 | 29.81790 | -72.34832 | 30015 ft | 505 kts | 172° |
| 2026-05-08 21:32 | 29.75021 | -72.32861 | 30007 ft | 505 kts | 172° |
| 2026-05-08 21:33 | 29.68206 | -72.30879 | 30017 ft | 505 kts | 172° |
| 2026-05-08 21:33 | 29.61392 | -72.28901 | 30021 ft | 505 kts | 172° |
| 2026-05-08 21:34 | 29.54533 | -72.26913 | 30021 ft | 505 kts | 172° |
| 2026-05-08 21:34 | 29.47758 | -72.24952 | 30014 ft | 505 kts | 172° |
| 2026-05-08 21:35 | 29.40939 | -72.22980 | 30019 ft | 505 kts | 172° |
| 2026-05-08 21:35 | 29.34117 | -72.21011 | 30022 ft | 506 kts | 172° |
| 2026-05-08 21:36 | 29.27288 | -72.19042 | 30024 ft | 506 kts | 172° |
| 2026-05-08 21:36 | 29.20459 | -72.17076 | 30023 ft | 506 kts | 172° |
| 2026-05-08 21:37 | 29.13626 | -72.15111 | 30023 ft | 506 kts | 172° |
| 2026-05-08 21:37 | 29.06796 | -72.13150 | 30030 ft | 506 kts | 172° |
| 2026-05-08 21:38 | 28.99956 | -72.11188 | 30024 ft | 507 kts | 172° |
| 2026-05-08 21:38 | 28.93119 | -72.09231 | 30036 ft | 507 kts | 172° |
| 2026-05-08 21:39 | 28.86276 | -72.07274 | 30023 ft | 507 kts | 172° |
| 2026-05-08 21:39 | 28.79430 | -72.05319 | 30030 ft | 507 kts | 172° |
| 2026-05-08 21:40 | 28.72588 | -72.03368 | 30028 ft | 507 kts | 172° |
| 2026-05-08 21:40 | 28.65735 | -72.01416 | 30033 ft | 508 kts | 172° |
| 2026-05-08 21:41 | 28.55456 | -71.98493 | 30025 ft | 508 kts | 171° |
| 2026-05-08 21:41 | 28.48597 | -71.96546 | 30037 ft | 508 kts | 171° |
| 2026-05-08 21:42 | 28.42895 | -71.94929 | 30036 ft | 508 kts | 171° |
| 2026-05-08 21:42 | 28.36029 | -71.92984 | 30038 ft | 509 kts | 171° |
| 2026-05-08 21:43 | 28.29162 | -71.91043 | 30021 ft | 509 kts | 171° |
| 2026-05-08 21:43 | 28.21171 | -71.88794 | 30035 ft | 509 kts | 171° |
| 2026-05-08 21:44 | 28.15411 | -71.87175 | 30040 ft | 510 kts | 171° |
| 2026-05-08 21:44 | 28.08524 | -71.85240 | 30032 ft | 510 kts | 171° |
| 2026-05-08 21:45 | 28.01633 | -71.83306 | 30015 ft | 510 kts | 171° |
| 2026-05-08 21:45 | 27.94737 | -71.81372 | 30039 ft | 510 kts | 171° |
| 2026-05-08 21:46 | 27.87843 | -71.79442 | 30037 ft | 511 kts | 171° |
| 2026-05-08 21:46 | 27.80944 | -71.77514 | 30035 ft | 511 kts | 171° |
| 2026-05-08 21:47 | 27.74041 | -71.75587 | 30038 ft | 511 kts | 171° |
| 2026-05-08 21:47 | 27.67140 | -71.73662 | 30031 ft | 511 kts | 170° |
| 2026-05-08 21:48 | 27.60241 | -71.71741 | 30037 ft | 511 kts | 170° |
| 2026-05-08 21:48 | 27.53346 | -71.69825 | 30040 ft | 511 kts | 170° |
| 2026-05-08 21:49 | 27.46488 | -71.67920 | 30042 ft | 511 kts | 170° |
| 2026-05-08 21:49 | 27.39586 | -71.66006 | 30033 ft | 511 kts | 170° |
| 2026-05-08 21:50 | 27.32693 | -71.64096 | 30040 ft | 511 kts | 170° |
| 2026-05-08 21:50 | 27.25787 | -71.62185 | 30038 ft | 511 kts | 170° |
| 2026-05-08 21:51 | 27.18885 | -71.60278 | 30038 ft | 511 kts | 170° |
| 2026-05-08 21:51 | 27.11986 | -71.58374 | 30027 ft | 511 kts | 169° |
| 2026-05-08 21:52 | 27.05082 | -71.56471 | 30042 ft | 510 kts | 169° |
| 2026-05-08 21:52 | 26.98189 | -71.54573 | 30039 ft | 510 kts | 169° |
| 2026-05-08 21:53 | 26.91288 | -71.52676 | 30041 ft | 511 kts | 169° |
| 2026-05-08 21:53 | 26.84388 | -71.50782 | 30040 ft | 511 kts | 169° |
| 2026-05-08 21:54 | 26.77480 | -71.48887 | 30038 ft | 510 kts | 169° |
| 2026-05-08 21:54 | 26.70587 | -71.46999 | 30048 ft | 510 kts | 169° |
| 2026-05-08 21:55 | 26.63695 | -71.45114 | 30038 ft | 510 kts | 169° |
| 2026-05-08 21:56 | 26.53363 | -71.42292 | 30053 ft | 510 kts | 169° |
| 2026-05-08 21:56 | 26.46472 | -71.40413 | 30038 ft | 510 kts | 169° |
| 2026-05-08 21:57 | 26.39584 | -71.38537 | 30037 ft | 510 kts | 169° |
| 2026-05-08 21:57 | 26.32742 | -71.36676 | 30051 ft | 510 kts | 169° |
| 2026-05-08 21:58 | 26.25854 | -71.34804 | 30036 ft | 510 kts | 169° |
| 2026-05-08 21:58 | 26.18969 | -71.32936 | 30037 ft | 509 kts | 169° |
| 2026-05-08 21:59 | 26.12096 | -71.31073 | 30041 ft | 508 kts | 169° |
| 2026-05-08 21:59 | 26.05229 | -71.29214 | 30046 ft | 508 kts | 169° |
| 2026-05-08 22:00 | 25.98356 | -71.27356 | 30037 ft | 508 kts | 169° |
| 2026-05-08 22:00 | 25.91497 | -71.25503 | 30037 ft | 507 kts | 168° |
| 2026-05-08 22:01 | 25.84646 | -71.23655 | 30042 ft | 505 kts | 168° |
| 2026-05-08 22:01 | 25.77817 | -71.21815 | 30037 ft | 505 kts | 168° |
| 2026-05-08 22:02 | 25.70999 | -71.19981 | 30040 ft | 504 kts | 168° |
| 2026-05-08 22:02 | 25.64185 | -71.18149 | 30049 ft | 504 kts | 168° |
| 2026-05-08 22:03 | 25.57382 | -71.16323 | 30038 ft | 503 kts | 168° |
| 2026-05-08 22:03 | 25.50582 | -71.14499 | 30041 ft | 502 kts | 168° |
| 2026-05-08 22:04 | 25.43801 | -71.12683 | 30046 ft | 501 kts | 168° |
| 2026-05-08 22:04 | 25.37017 | -71.10868 | 30047 ft | 501 kts | 168° |
| 2026-05-08 22:05 | 25.30235 | -71.09056 | 30041 ft | 501 kts | 168° |
| 2026-05-08 22:05 | 25.23457 | -71.07247 | 30052 ft | 501 kts | 168° |
| 2026-05-08 22:06 | 25.16674 | -71.05438 | 30050 ft | 501 kts | 168° |
| 2026-05-08 22:06 | 25.09891 | -71.03632 | 30051 ft | 502 kts | 168° |
| 2026-05-08 22:07 | 25.03100 | -71.01825 | 30046 ft | 502 kts | 168° |
| 2026-05-08 22:07 | 24.96266 | -71.00441 | 30051 ft | 499 kts | 176° |
| 2026-05-08 22:08 | 24.89346 | -70.99804 | 30044 ft | 499 kts | 178° |
| 2026-05-08 22:08 | 24.82413 | -70.99212 | 30046 ft | 499 kts | 178° |
| 2026-05-08 22:09 | 24.75487 | -70.98555 | 30047 ft | 500 kts | 177° |
| 2026-05-08 22:09 | 24.68560 | -70.97862 | 30044 ft | 500 kts | 177° |
| 2026-05-08 22:10 | 24.61677 | -70.97169 | 30050 ft | 500 kts | 177° |
| 2026-05-08 22:10 | 24.54743 | -70.96475 | 30049 ft | 500 kts | 177° |
| 2026-05-08 22:11 | 24.47816 | -70.95786 | 30050 ft | 500 kts | 177° |
| 2026-05-08 22:11 | 24.40871 | -70.95095 | 30049 ft | 500 kts | 177° |
| 2026-05-08 22:12 | 24.33933 | -70.94406 | 30043 ft | 500 kts | 176° |
| 2026-05-08 22:12 | 24.27004 | -70.93718 | 30047 ft | 500 kts | 176° |
| 2026-05-08 22:13 | 24.20068 | -70.93030 | 30047 ft | 500 kts | 176° |
| 2026-05-08 22:13 | 24.13132 | -70.92343 | 30047 ft | 500 kts | 176° |
| 2026-05-08 22:14 | 24.06199 | -70.91740 | 30042 ft | 500 kts | 177° |
| 2026-05-08 22:14 | 23.99269 | -70.91215 | 30048 ft | 500 kts | 178° |
| 2026-05-08 22:15 | 23.92327 | -70.90683 | 30047 ft | 500 kts | 177° |
| 2026-05-08 22:15 | 23.85387 | -70.90137 | 30044 ft | 500 kts | 177° |
| 2026-05-08 22:16 | 23.78445 | -70.89587 | 30032 ft | 500 kts | 177° |
| 2026-05-08 22:16 | 23.71502 | -70.89037 | 30035 ft | 500 kts | 177° |
| 2026-05-08 22:17 | 23.64573 | -70.88490 | 30040 ft | 500 kts | 177° |
| 2026-05-08 22:17 | 23.57637 | -70.87943 | 30044 ft | 500 kts | 177° |
| 2026-05-08 22:18 | 23.50690 | -70.87396 | 30048 ft | 500 kts | 177° |
| 2026-05-08 22:18 | 23.43750 | -70.86850 | 30042 ft | 501 kts | 177° |
| 2026-05-08 22:19 | 23.36795 | -70.86299 | 30038 ft | 501 kts | 177° |
| 2026-05-08 22:19 | 23.29852 | -70.85720 | 30040 ft | 501 kts | 177° |
| 2026-05-08 22:20 | 23.22947 | -70.85139 | 30042 ft | 501 kts | 177° |
| 2026-05-08 22:20 | 23.15988 | -70.84558 | 30033 ft | 501 kts | 177° |
| 2026-05-08 22:21 | 23.09043 | -70.83981 | 30038 ft | 500 kts | 177° |
| 2026-05-08 22:21 | 23.02104 | -70.83405 | 30039 ft | 500 kts | 177° |
| 2026-05-08 22:22 | 22.95169 | -70.82830 | 30037 ft | 500 kts | 177° |
| 2026-05-08 22:22 | 22.88238 | -70.82249 | 30045 ft | 500 kts | 176° |
| 2026-05-08 22:23 | 22.81317 | -70.81654 | 30038 ft | 499 kts | 176° |
| 2026-05-08 22:23 | 22.74393 | -70.81060 | 30034 ft | 499 kts | 176° |
| 2026-05-08 22:24 | 22.67469 | -70.80842 | 30033 ft | 497 kts | 187° |
| 2026-05-08 22:24 | 22.60673 | -70.82150 | 30036 ft | 496 kts | 193° |
| 2026-05-08 22:25 | 22.53907 | -70.83626 | 30022 ft | 496 kts | 192° |
| 2026-05-08 22:25 | 22.47135 | -70.85052 | 30032 ft | 496 kts | 192° |
| 2026-05-08 22:26 | 22.40353 | -70.86437 | 30035 ft | 496 kts | 192° |
| 2026-05-08 22:26 | 22.33574 | -70.87809 | 30028 ft | 496 kts | 192° |
| 2026-05-08 22:27 | 22.26798 | -70.89180 | 30035 ft | 496 kts | 192° |
| 2026-05-08 22:27 | 22.20017 | -70.90553 | 30031 ft | 496 kts | 191° |
| 2026-05-08 22:28 | 22.13235 | -70.91926 | 30023 ft | 496 kts | 191° |
| 2026-05-08 22:28 | 22.06451 | -70.93298 | 30028 ft | 496 kts | 191° |
| 2026-05-08 22:29 | 21.99710 | -70.94660 | 30027 ft | 496 kts | 191° |
| 2026-05-08 22:29 | 21.92932 | -70.96028 | 30022 ft | 496 kts | 191° |
| 2026-05-08 22:30 | 21.86134 | -70.97399 | 30025 ft | 496 kts | 191° |
| 2026-05-08 22:30 | 21.79350 | -70.98766 | 30026 ft | 496 kts | 191° |
| 2026-05-08 22:31 | 21.73657 | -70.99912 | 30021 ft | 497 kts | 191° |
| 2026-05-08 22:31 | 21.66863 | -71.01279 | 30021 ft | 497 kts | 191° |
| 2026-05-08 22:32 | 21.60111 | -71.02629 | 30017 ft | 497 kts | 190° |
| 2026-05-08 22:32 | 21.53212 | -71.02857 | 30028 ft | 498 kts | 175° |
| 2026-05-08 22:33 | 21.46313 | -71.02156 | 30000 ft | 498 kts | 174° |
| 2026-05-08 22:33 | 21.39420 | -71.01456 | 30017 ft | 498 kts | 175° |
| 2026-05-08 22:34 | 21.32512 | -71.00816 | 30013 ft | 498 kts | 175° |
| 2026-05-08 22:34 | 21.29062 | -71.00504 | 30143 ft | 495 kts | 175° |
| 2026-05-08 22:34 | 21.25620 | -71.00198 | 30072 ft | 497 kts | 175° |
| 2026-05-08 22:35 | 21.18708 | -70.99584 | 30020 ft | 499 kts | 175° |
| 2026-05-08 22:35 | 21.11790 | -70.98966 | 30008 ft | 499 kts | 175° |
| 2026-05-08 22:36 | 21.04871 | -70.98346 | 30007 ft | 499 kts | 175° |
| 2026-05-08 22:36 | 20.97930 | -70.97725 | 29619 ft | 503 kts | 175° |
| 2026-05-08 22:36 | 20.94453 | -70.97333 | 29286 ft | 501 kts | 171° |
| 2026-05-08 22:37 | 20.91062 | -70.96465 | 28978 ft | 503 kts | 162° |
| 2026-05-08 22:37 | 20.87730 | -70.95316 | 28682 ft | 503 kts | 161° |
| 2026-05-08 22:37 | 20.84409 | -70.94130 | 28377 ft | 504 kts | 161° |
| 2026-05-08 22:37 | 20.81070 | -70.92938 | 28070 ft | 505 kts | 161° |
| 2026-05-08 22:38 | 20.77739 | -70.91767 | 27776 ft | 505 kts | 161° |
| 2026-05-08 22:38 | 20.74399 | -70.90611 | 27481 ft | 505 kts | 161° |
| 2026-05-08 22:38 | 20.71061 | -70.89469 | 27183 ft | 504 kts | 161° |
| 2026-05-08 22:38 | 20.67768 | -70.88350 | 26865 ft | 488 kts | 161° |
| 2026-05-08 22:39 | 20.64588 | -70.87273 | 26620 ft | 474 kts | 161° |
| 2026-05-08 22:39 | 20.61466 | -70.86214 | 26381 ft | 469 kts | 161° |
| 2026-05-08 22:39 | 20.58355 | -70.85157 | 26148 ft | 469 kts | 161° |
| 2026-05-08 22:39 | 20.55251 | -70.84102 | 25915 ft | 468 kts | 161° |
| 2026-05-08 22:40 | 20.52148 | -70.83048 | 25693 ft | 467 kts | 161° |
| 2026-05-08 22:40 | 20.49062 | -70.81999 | 25459 ft | 465 kts | 161° |
| 2026-05-08 22:40 | 20.45984 | -70.80954 | 25230 ft | 464 kts | 161° |
| 2026-05-08 22:40 | 20.42906 | -70.79910 | 25003 ft | 463 kts | 161° |
| 2026-05-08 22:41 | 20.39846 | -70.78870 | 24779 ft | 461 kts | 161° |
| 2026-05-08 22:41 | 20.36791 | -70.77824 | 24553 ft | 460 kts | 161° |
| 2026-05-08 22:41 | 20.33753 | -70.76781 | 24334 ft | 459 kts | 161° |
| 2026-05-08 22:41 | 20.30717 | -70.75738 | 24112 ft | 457 kts | 161° |
| 2026-05-08 22:42 | 20.27698 | -70.74701 | 23896 ft | 456 kts | 161° |
| 2026-05-08 22:42 | 20.24681 | -70.73666 | 23681 ft | 454 kts | 161° |
| 2026-05-08 22:42 | 20.21672 | -70.72634 | 23442 ft | 453 kts | 161° |
| 2026-05-08 22:42 | 20.18674 | -70.71607 | 23185 ft | 452 kts | 161° |
| 2026-05-08 22:43 | 20.15726 | -70.70598 | 22928 ft | 450 kts | 161° |
| 2026-05-08 22:43 | 20.12747 | -70.69579 | 22674 ft | 449 kts | 161° |
| 2026-05-08 22:43 | 20.09742 | -70.68551 | 22417 ft | 447 kts | 160° |
| 2026-05-08 22:43 | 20.06785 | -70.67540 | 22163 ft | 446 kts | 161° |
| 2026-05-08 22:44 | 20.03876 | -70.66546 | 21914 ft | 444 kts | 160° |
| 2026-05-08 22:44 | 20.00944 | -70.65544 | 21665 ft | 442 kts | 160° |
| 2026-05-08 22:44 | 19.97986 | -70.64533 | 21412 ft | 441 kts | 160° |
| 2026-05-08 22:44 | 19.95115 | -70.63553 | 21099 ft | 435 kts | 160° |
| 2026-05-08 22:45 | 19.92220 | -70.62566 | 20776 ft | 426 kts | 160° |
| 2026-05-08 22:45 | 19.89468 | -70.61628 | 20461 ft | 418 kts | 160° |
| 2026-05-08 22:45 | 19.86720 | -70.60690 | 20153 ft | 412 kts | 160° |
| 2026-05-08 22:45 | 19.83995 | -70.59760 | 19853 ft | 411 kts | 160° |
| 2026-05-08 22:46 | 19.81268 | -70.58829 | 19561 ft | 414 kts | 160° |
| 2026-05-08 22:46 | 19.78523 | -70.57894 | 19269 ft | 414 kts | 160° |
| 2026-05-08 22:46 | 19.75828 | -70.56855 | 18969 ft | 410 kts | 153° |
| 2026-05-08 22:46 | 19.73348 | -70.55393 | 18684 ft | 405 kts | 144° |
| 2026-05-08 22:47 | 19.70986 | -70.53774 | 18406 ft | 404 kts | 143° |
| 2026-05-08 22:47 | 19.68644 | -70.52140 | 18103 ft | 402 kts | 143° |
| 2026-05-08 22:47 | 19.66302 | -70.50508 | 17768 ft | 401 kts | 143° |
| 2026-05-08 22:47 | 19.63973 | -70.48895 | 17437 ft | 399 kts | 144° |
| 2026-05-08 22:48 | 19.61653 | -70.47301 | 17111 ft | 397 kts | 144° |
| 2026-05-08 22:48 | 19.59334 | -70.45715 | 16787 ft | 395 kts | 144° |
| 2026-05-08 22:48 | 19.57032 | -70.44146 | 16471 ft | 393 kts | 144° |
| 2026-05-08 22:48 | 19.54744 | -70.42590 | 16171 ft | 389 kts | 144° |
| 2026-05-08 22:49 | 19.52480 | -70.41048 | 15914 ft | 385 kts | 143° |
| 2026-05-08 22:49 | 19.48029 | -70.38022 | 15438 ft | 372 kts | 144° |
| 2026-05-08 22:49 | 19.45883 | -70.36568 | 15187 ft | 359 kts | 143° |
| 2026-05-08 22:50 | 19.43811 | -70.35161 | 14904 ft | 349 kts | 143° |
| 2026-05-08 22:50 | 19.41786 | -70.33784 | 14544 ft | 343 kts | 143° |
| 2026-05-08 22:50 | 19.39789 | -70.32428 | 14213 ft | 338 kts | 143° |
| 2026-05-08 22:50 | 19.37828 | -70.31095 | 13882 ft | 334 kts | 143° |
| 2026-05-08 22:51 | 19.35874 | -70.29768 | 13531 ft | 332 kts | 143° |
| 2026-05-08 22:51 | 19.33940 | -70.28450 | 13149 ft | 329 kts | 143° |
| 2026-05-08 22:51 | 19.32029 | -70.27122 | 12775 ft | 327 kts | 143° |
| 2026-05-08 22:51 | 19.30141 | -70.25798 | 12410 ft | 326 kts | 143° |
| 2026-05-08 22:52 | 19.28274 | -70.24487 | 12085 ft | 318 kts | 143° |
| 2026-05-08 22:52 | 19.26437 | -70.23199 | 11716 ft | 314 kts | 143° |
| 2026-05-08 22:52 | 19.24628 | -70.21935 | 11354 ft | 310 kts | 143° |
| 2026-05-08 22:52 | 19.22838 | -70.20684 | 11000 ft | 306 kts | 143° |
| 2026-05-08 22:53 | 19.21067 | -70.19445 | 10650 ft | 305 kts | 143° |
| 2026-05-08 22:53 | 19.19298 | -70.18209 | 10296 ft | 305 kts | 143° |
| 2026-05-08 22:53 | 19.17521 | -70.16967 | 9962 ft | 305 kts | 144° |
| 2026-05-08 22:53 | 19.15757 | -70.15737 | 9593 ft | 305 kts | 143° |
| 2026-05-08 22:54 | 19.13991 | -70.14507 | 9220 ft | 302 kts | 145° |
| 2026-05-08 22:54 | 19.12161 | -70.13441 | 8840 ft | 300 kts | 152° |
| 2026-05-08 22:54 | 19.10255 | -70.12557 | 8472 ft | 297 kts | 156° |
| 2026-05-08 22:54 | 19.08358 | -70.11724 | 8106 ft | 294 kts | 156° |
| 2026-05-08 22:55 | 19.06478 | -70.10898 | 7736 ft | 291 kts | 156° |
| 2026-05-08 22:55 | 19.04631 | -70.10077 | 7415 ft | 284 kts | 156° |
| 2026-05-08 22:55 | 19.02847 | -70.09274 | 7064 ft | 273 kts | 156° |
| 2026-05-08 22:55 | 19.01127 | -70.08495 | 6703 ft | 265 kts | 155° |
| 2026-05-08 22:56 | 18.99456 | -70.07733 | 6348 ft | 258 kts | 155° |
| 2026-05-08 22:56 | 18.97820 | -70.06986 | 5973 ft | 255 kts | 155° |
| 2026-05-08 22:56 | 18.96196 | -70.06242 | 5593 ft | 255 kts | 155° |
| 2026-05-08 22:56 | 18.94596 | -70.05508 | 5250 ft | 253 kts | 154° |
| 2026-05-08 22:57 | 18.92981 | -70.04766 | 4895 ft | 253 kts | 154° |
| 2026-05-08 22:57 | 18.91368 | -70.04026 | 4524 ft | 252 kts | 154° |
| 2026-05-08 22:57 | 18.89764 | -70.03289 | 4166 ft | 251 kts | 155° |
| 2026-05-08 22:57 | 18.88168 | -70.02557 | 3778 ft | 248 kts | 155° |
| 2026-05-08 22:58 | 18.86610 | -70.01841 | 3442 ft | 242 kts | 155° |
| 2026-05-08 22:58 | 18.85083 | -70.01140 | 3065 ft | 238 kts | 155° |
| 2026-05-08 22:58 | 18.83579 | -70.00448 | 2701 ft | 232 kts | 155° |
| 2026-05-08 22:58 | 18.82120 | -69.99778 | 2360 ft | 226 kts | 155° |
| 2026-05-08 22:59 | 18.80699 | -69.99127 | 1984 ft | 219 kts | 155° |
| 2026-05-08 22:59 | 18.79334 | -69.98500 | 1752 ft | 208 kts | 156° |
| 2026-05-08 22:59 | 18.78061 | -69.97917 | 1713 ft | 192 kts | 155° |
| 2026-05-08 22:59 | 18.76892 | -69.97381 | 1702 ft | 173 kts | 154° |
| 2026-05-08 23:00 | 18.75835 | -69.96898 | 1686 ft | 160 kts | 155° |
| 2026-05-08 23:00 | 18.74838 | -69.96444 | 1703 ft | 152 kts | 158° |
| 2026-05-08 23:00 | 18.73790 | -69.96443 | 1707 ft | 152 kts | 189° |
| 2026-05-08 23:00 | 18.72728 | -69.96554 | 1713 ft | 155 kts | 181° |
| 2026-05-08 23:01 | 18.71667 | -69.96683 | 1707 ft | 152 kts | 184° |
| 2026-05-08 23:01 | 18.70636 | -69.96824 | 1716 ft | 149 kts | 184° |
| 2026-05-08 23:01 | 18.69600 | -69.96961 | 1733 ft | 152 kts | 182° |
| 2026-05-08 23:01 | 18.68562 | -69.97096 | 1710 ft | 149 kts | 184° |
| 2026-05-08 23:02 | 18.67516 | -69.97231 | 1700 ft | 153 kts | 185° |
| 2026-05-08 23:02 | 18.66490 | -69.97367 | 1674 ft | 139 kts | 185° |
| 2026-05-08 23:02 | 18.65579 | -69.97485 | 1653 ft | 131 kts | 182° |
| 2026-05-08 23:02 | 18.64682 | -69.97602 | 1453 ft | 126 kts | 184° |
| 2026-05-08 23:03 | 18.63810 | -69.97715 | 1302 ft | 128 kts | 184° |
| 2026-05-08 23:03 | 18.62931 | -69.97828 | 1129 ft | 130 kts | 184° |
| 2026-05-08 23:03 | 18.62017 | -69.97948 | 977 ft | 135 kts | 186° |
| 2026-05-08 23:03 | 18.61109 | -69.98088 | 810 ft | 129 kts | 189° |
| 2026-05-08 23:04 | 18.60232 | -69.98220 | 630 ft | 123 kts | 188° |
| 2026-05-08 23:04 | 18.59409 | -69.98325 | 472 ft | 120 kts | 185° |
| 2026-05-08 23:04 | 18.58554 | -69.98424 | 316 ft | 122 kts | 185° |
| 2026-05-08 23:04 | 18.57724 | -69.98515 | 92 ft | 117 kts | 186° |
| 2026-05-08 23:05 | 18.56985 | -69.98599 | 48 ft | 81 kts | 186° |
| 2026-05-08 23:05 | 18.56649 | -69.98637 | 41 ft | 28 kts | 186° |
| 2026-05-08 23:05 | 18.56570 | -69.98643 | 39 ft | 9 kts | 171° |
| 2026-05-08 23:05 | 18.56517 | -69.98619 | 38 ft | 8 kts | 174° |
| 2026-05-08 23:06 | 18.56525 | -69.98649 | 38 ft | 8 kts | 359° |
| 2026-05-08 23:06 | 18.56581 | -69.98645 | 39 ft | 8 kts | 6° |
| 2026-05-08 23:06 | 18.56645 | -69.98638 | 41 ft | 11 kts | 6° |
| 2026-05-08 23:06 | 18.56736 | -69.98628 | 43 ft | 15 kts | 7° |
| 2026-05-08 23:07 | 18.56836 | -69.98615 | 46 ft | 14 kts | 7° |
| 2026-05-08 23:07 | 18.56931 | -69.98604 | 48 ft | 13 kts | 6° |
| 2026-05-08 23:07 | 18.57022 | -69.98593 | 46 ft | 13 kts | 6° |
| 2026-05-08 23:07 | 18.57110 | -69.98584 | 53 ft | 13 kts | 6° |
| 2026-05-08 23:08 | 18.57197 | -69.98574 | 53 ft | 12 kts | 6° |
| 2026-05-08 23:08 | 18.57271 | -69.98536 | 54 ft | 12 kts | 36° |
| 2026-05-08 23:08 | 18.57337 | -69.98483 | 62 ft | 12 kts | 37° |
| 2026-05-08 23:08 | 18.57401 | -69.98432 | 60 ft | 11 kts | 36° |
| 2026-05-08 23:09 | 18.57464 | -69.98385 | 63 ft | 11 kts | 35° |
| 2026-05-08 23:09 | 18.57525 | -69.98340 | 62 ft | 8 kts | 33° |
| 2026-05-08 23:09 | 18.57529 | -69.98295 | 68 ft | 6 kts | 135° |
| 2026-05-08 23:09 | 18.57514 | -69.98300 | 59 ft | 0 kts | 237° |